createdAt,value
2018-06-21T00:00:48.258Z,99.90
2018-06-21T00:03:16.337Z,99.90
2018-06-21T00:05:44.379Z,99.90
2018-06-21T00:08:12.430Z,99.90
2018-06-21T00:10:40.457Z,99.90
2018-06-21T00:13:08.509Z,99.90
2018-06-21T00:15:36.539Z,99.90
2018-06-21T00:18:04.604Z,99.90
2018-06-21T00:20:32.630Z,99.90
2018-06-21T00:23:00.661Z,99.90
2018-06-21T00:25:28.708Z,99.90
2018-06-21T00:27:56.909Z,99.90
2018-06-21T00:30:24.954Z,99.90
2018-06-21T00:32:52.997Z,99.90
2018-06-21T00:35:21.012Z,99.90
2018-06-21T00:37:49.065Z,99.90
2018-06-21T00:40:17.093Z,99.90
2018-06-21T00:42:45.129Z,99.90
2018-06-21T00:47:41.678Z,99.90
2018-06-21T00:50:09.741Z,99.90
2018-06-21T00:52:37.871Z,99.90
2018-06-21T00:55:05.928Z,99.90
2018-06-21T00:57:34.017Z,99.90
2018-06-21T01:00:02.093Z,99.90
2018-06-21T01:02:30.302Z,99.90
2018-06-21T01:04:58.329Z,99.90
2018-06-21T01:07:26.384Z,99.90
2018-06-21T01:09:54.499Z,99.90
2018-06-21T01:12:23.227Z,99.90
2018-06-21T01:14:52.810Z,99.90
2018-06-21T01:17:20.864Z,99.90
2018-06-21T01:19:48.922Z,99.90
2018-06-21T01:22:16.980Z,99.90
2018-06-21T01:24:45.064Z,99.90
2018-06-21T01:27:13.126Z,99.90
2018-06-21T01:29:41.243Z,99.90
2018-06-21T01:32:09.430Z,99.90
2018-06-21T01:34:37.473Z,99.90
2018-06-21T01:37:05.562Z,99.90
2018-06-21T01:39:33.612Z,99.90
2018-06-21T01:42:01.606Z,99.90
2018-06-21T01:46:57.393Z,99.90
2018-06-21T01:49:25.450Z,99.90
2018-06-21T01:51:53.531Z,99.90
2018-06-21T01:54:21.602Z,99.90
2018-06-21T01:56:49.812Z,99.90
2018-06-21T01:59:17.835Z,99.90
2018-06-21T02:01:45.865Z,99.90
2018-06-21T02:04:13.921Z,99.90
2018-06-21T02:06:41.954Z,99.90
2018-06-21T02:09:10.497Z,99.90
2018-06-21T02:11:38.511Z,99.90
2018-06-21T02:14:06.550Z,99.90
2018-06-21T02:16:34.574Z,99.90
2018-06-21T02:19:02.646Z,99.90
2018-06-21T02:21:30.699Z,99.90
2018-06-21T02:23:58.914Z,99.90
2018-06-21T02:26:26.921Z,99.90
2018-06-21T02:28:54.986Z,99.90
2018-06-21T02:31:23.026Z,99.90
2018-06-21T02:33:51.073Z,99.90
2018-06-21T02:36:19.103Z,99.90
2018-06-21T02:38:47.192Z,99.90
2018-06-21T02:43:42.954Z,99.90
2018-06-21T02:46:11.027Z,99.90
2018-06-21T02:48:39.077Z,99.90
2018-06-21T02:51:07.201Z,99.90
2018-06-21T02:53:35.253Z,99.90
2018-06-21T02:56:03.295Z,99.90
2018-06-21T02:58:31.329Z,99.90
2018-06-21T03:00:59.362Z,99.90
2018-06-21T03:03:27.427Z,99.90
2018-06-21T03:05:55.478Z,99.90
2018-06-21T03:08:23.522Z,99.90
2018-06-21T03:10:51.561Z,99.90
2018-06-21T03:13:19.600Z,99.90
2018-06-21T03:15:47.652Z,99.90
2018-06-21T03:18:15.758Z,99.90
2018-06-21T03:20:44.006Z,99.90
2018-06-21T03:23:12.038Z,99.90
2018-06-21T03:25:40.213Z,99.90
2018-06-21T03:28:08.205Z,99.90
2018-06-21T03:30:36.358Z,99.90
2018-06-21T03:33:04.445Z,99.90
2018-06-21T03:35:32.479Z,99.90
2018-06-21T03:38:00.685Z,99.90
2018-06-21T03:40:29.024Z,99.90
2018-06-21T03:42:57.073Z,99.90
2018-06-21T03:45:25.125Z,99.90
2018-06-21T03:47:53.371Z,99.90
2018-06-21T03:50:21.406Z,99.90
2018-06-21T03:52:49.434Z,99.90
2018-06-21T03:55:17.478Z,99.90
2018-06-21T03:57:45.514Z,99.90
2018-06-21T04:00:13.738Z,99.90
2018-06-21T04:02:41.864Z,99.90
2018-06-21T04:05:09.912Z,99.90
2018-06-21T04:07:38.058Z,99.90
2018-06-21T04:10:06.086Z,99.90
2018-06-21T04:12:34.107Z,99.90
2018-06-21T04:15:02.145Z,99.90
2018-06-21T04:17:30.183Z,99.90
2018-06-21T04:19:58.266Z,99.90
2018-06-21T04:24:54.053Z,99.90
2018-06-21T04:27:22.087Z,99.90
2018-06-21T04:29:50.138Z,99.90
2018-06-21T04:34:45.888Z,99.90
2018-06-21T04:37:13.933Z,99.90
2018-06-21T04:39:41.959Z,99.90
2018-06-21T04:42:10.025Z,99.90
2018-06-21T04:44:38.061Z,99.90
2018-06-21T04:47:06.770Z,99.90
2018-06-21T04:49:34.821Z,99.90
2018-06-21T04:52:02.853Z,99.90
2018-06-21T04:54:30.878Z,99.90
2018-06-21T04:56:58.957Z,99.90
2018-06-21T04:59:26.993Z,99.90
2018-06-21T05:01:55.039Z,99.90
2018-06-21T05:04:23.099Z,99.90
2018-06-21T05:06:51.157Z,99.90
2018-06-21T05:09:19.227Z,99.90
2018-06-21T05:11:47.298Z,99.90
2018-06-21T05:14:15.327Z,99.90
2018-06-21T05:19:11.132Z,99.90
2018-06-21T05:21:39.334Z,99.90
2018-06-21T05:24:07.482Z,99.90
2018-06-21T05:26:35.545Z,99.90
2018-06-21T05:29:03.585Z,99.90
2018-06-21T05:31:31.821Z,99.90
2018-06-21T05:33:59.913Z,99.90
2018-06-21T05:36:27.942Z,99.90
2018-06-21T05:38:56.033Z,99.90
2018-06-21T05:41:24.082Z,99.90
2018-06-21T05:43:52.235Z,99.90
2018-06-21T05:46:20.567Z,99.90
2018-06-21T05:48:48.589Z,99.90
2018-06-21T05:51:16.795Z,99.90
2018-06-21T05:53:44.992Z,99.90
2018-06-21T05:56:13.243Z,99.90
2018-06-21T05:58:41.281Z,99.90
2018-06-21T06:01:09.415Z,99.90
2018-06-21T06:03:37.532Z,99.90
2018-06-21T06:06:05.630Z,99.90
2018-06-21T06:08:33.818Z,99.90
2018-06-21T06:11:02.917Z,99.90
2018-06-21T06:13:30.965Z,99.90
2018-06-21T06:15:59.022Z,99.90
2018-06-21T06:18:27.084Z,99.90
2018-06-21T06:20:55.120Z,99.90
2018-06-21T06:23:23.208Z,99.90
2018-06-21T06:25:51.217Z,99.90
2018-06-21T06:28:19.297Z,99.90
2018-06-21T06:30:47.306Z,99.90
2018-06-21T06:33:15.350Z,99.90
2018-06-21T06:35:43.426Z,99.90
2018-06-21T06:38:11.535Z,99.90
2018-06-21T06:40:39.589Z,99.90
2018-06-21T06:43:07.641Z,99.90
2018-06-21T06:45:35.688Z,99.90
2018-06-21T06:48:03.757Z,99.90
2018-06-21T06:50:31.816Z,99.90
2018-06-21T06:52:59.933Z,99.90
2018-06-21T06:55:28.016Z,99.90
2018-06-21T06:57:56.062Z,99.90
2018-06-21T07:00:24.086Z,99.90
2018-06-21T07:02:52.157Z,99.90
2018-06-21T07:05:20.185Z,99.90
2018-06-21T07:07:48.238Z,99.90
2018-06-21T07:10:16.266Z,99.90
2018-06-21T07:12:45.325Z,99.90
2018-06-21T07:15:13.610Z,99.90
2018-06-21T07:17:41.740Z,99.90
2018-06-21T07:20:09.825Z,99.90
2018-06-21T07:22:37.857Z,99.90
2018-06-21T07:25:05.930Z,99.90
2018-06-21T07:27:33.976Z,99.90
2018-06-21T07:30:02.090Z,99.90
2018-06-21T07:32:30.138Z,99.90
2018-06-21T07:34:58.209Z,99.90
2018-06-21T07:37:26.373Z,99.90
2018-06-21T07:39:54.413Z,99.90
2018-06-21T07:42:22.469Z,99.90
2018-06-21T07:44:50.499Z,99.90
2018-06-21T07:47:18.591Z,99.90
2018-06-21T07:49:46.622Z,99.90
2018-06-21T07:52:14.671Z,99.90
2018-06-21T07:54:42.764Z,99.90
2018-06-21T07:57:10.823Z,99.90
2018-06-21T07:59:38.881Z,99.90
2018-06-21T08:02:06.905Z,99.90
2018-06-21T08:04:34.962Z,99.90
2018-06-21T08:07:03.095Z,99.90
2018-06-21T08:09:31.146Z,99.90
2018-06-21T08:11:59.272Z,99.90
2018-06-21T08:14:27.297Z,99.90
2018-06-21T08:16:55.386Z,99.90
2018-06-21T08:19:23.431Z,99.90
2018-06-21T08:21:51.444Z,99.90
2018-06-21T08:24:19.488Z,99.90
2018-06-21T08:26:47.557Z,99.90
2018-06-21T08:29:15.677Z,99.90
2018-06-21T08:31:44.163Z,99.90
2018-06-21T08:34:12.237Z,99.90
2018-06-21T08:36:40.268Z,99.90
2018-06-21T08:39:08.853Z,99.90
2018-06-21T08:41:37.051Z,99.90
2018-06-21T08:44:05.111Z,99.90
2018-06-21T08:46:33.297Z,99.90
2018-06-21T08:49:01.345Z,99.90
2018-06-21T08:51:29.379Z,99.90
2018-06-21T08:53:57.530Z,99.90
2018-06-21T08:56:25.524Z,99.90
2018-06-21T09:01:21.394Z,99.90
2018-06-21T09:03:49.501Z,99.90
2018-06-21T09:06:17.527Z,99.90
2018-06-21T09:08:45.593Z,99.90
2018-06-21T09:11:13.631Z,99.90
2018-06-21T09:13:41.797Z,99.90
2018-06-21T09:16:10.986Z,99.90
2018-06-21T09:18:39.172Z,99.90
2018-06-21T09:21:07.193Z,99.90
2018-06-21T09:23:35.325Z,99.90
2018-06-21T09:26:03.690Z,99.90
2018-06-21T09:28:31.778Z,99.90
2018-06-21T09:30:59.895Z,99.90
2018-06-21T09:33:27.938Z,99.90
2018-06-21T09:35:55.979Z,99.90
2018-06-21T09:38:29.623Z,99.90
2018-06-21T09:43:36.633Z,99.20
2018-06-21T09:46:10.466Z,99.30
2018-06-21T09:48:38.513Z,99.00
2018-06-21T09:51:06.537Z,98.40
2018-06-21T09:53:34.562Z,97.60
2018-06-21T09:56:02.665Z,97.20
2018-06-21T09:58:30.750Z,97.30
2018-06-21T10:01:02.393Z,96.80
2018-06-21T10:03:30.781Z,94.50
2018-06-21T10:05:58.894Z,94.10
2018-06-21T10:08:26.942Z,93.40
2018-06-21T10:10:54.989Z,93.20
2018-06-21T10:13:23.068Z,92.10
2018-06-21T10:15:51.188Z,91.20
2018-06-21T10:18:19.269Z,90.40
2018-06-21T10:23:15.173Z,90.20
2018-06-21T10:25:43.341Z,87.80
2018-06-21T10:28:11.414Z,88.20
2018-06-21T10:30:39.482Z,87.80
2018-06-21T10:33:07.712Z,87.20
2018-06-21T10:35:35.770Z,89.10
2018-06-21T10:38:03.789Z,88.30
2018-06-21T10:40:31.857Z,90.30
2018-06-21T10:42:59.877Z,91.70
2018-06-21T10:45:27.908Z,94.90
2018-06-21T10:47:55.951Z,99.90
2018-06-21T10:50:24.057Z,99.90
2018-06-21T10:52:52.087Z,99.90
2018-06-21T10:55:20.133Z,99.90
2018-06-21T11:00:16.013Z,99.90
2018-06-21T11:02:44.081Z,99.90
2018-06-21T11:05:12.143Z,99.90
2018-06-21T11:07:40.230Z,99.90
2018-06-21T11:10:08.270Z,99.90
2018-06-21T11:12:36.280Z,99.90
2018-06-21T11:15:04.339Z,99.90
2018-06-21T11:17:32.434Z,99.90
2018-06-21T11:20:00.471Z,99.90
2018-06-21T11:22:28.499Z,99.90
2018-06-21T11:24:56.536Z,99.90
2018-06-21T11:27:24.566Z,99.90
2018-06-21T11:29:52.620Z,99.90
2018-06-21T11:32:20.675Z,99.90
2018-06-21T11:34:48.752Z,99.90
2018-06-21T11:37:16.791Z,99.90
2018-06-21T11:39:44.874Z,99.90
2018-06-21T11:42:12.906Z,99.90
2018-06-21T11:44:40.948Z,99.90
2018-06-21T11:47:08.992Z,99.90
2018-06-21T11:49:37.037Z,99.90
2018-06-21T11:52:05.363Z,99.90
2018-06-21T11:54:33.386Z,99.90
2018-06-21T11:57:01.434Z,99.90
2018-06-21T11:59:29.462Z,99.90
2018-06-21T12:01:57.582Z,99.90
2018-06-21T12:06:53.589Z,99.90
2018-06-21T12:09:21.609Z,99.90
2018-06-21T12:16:45.337Z,99.90
2018-06-21T12:19:13.476Z,99.90
2018-06-21T12:21:41.519Z,99.90
2018-06-21T12:24:09.556Z,99.90
2018-06-21T12:26:37.589Z,99.90
2018-06-21T12:29:05.611Z,99.90
2018-06-21T12:31:33.683Z,99.90
2018-06-21T12:34:01.746Z,99.90
2018-06-21T12:36:29.973Z,99.90
2018-06-21T12:38:57.996Z,99.90
2018-06-21T12:41:26.046Z,99.90
2018-06-21T12:43:54.102Z,99.90
2018-06-21T12:46:22.130Z,99.90
2018-06-21T12:48:50.162Z,99.90
2018-06-21T12:51:18.222Z,99.90
2018-06-21T12:53:46.253Z,99.90
2018-06-21T12:56:14.296Z,99.90
2018-06-21T12:58:42.542Z,99.90
2018-06-21T13:01:10.586Z,99.90
2018-06-21T13:03:38.650Z,99.90
2018-06-21T13:06:06.738Z,99.90
2018-06-21T13:08:40.727Z,99.90
2018-06-21T13:11:18.202Z,99.90
2018-06-21T13:13:46.285Z,99.90
2018-06-21T13:16:14.368Z,99.90
2018-06-21T13:18:42.398Z,99.90
2018-06-21T13:21:10.431Z,99.90
2018-06-21T13:23:38.578Z,99.90
2018-06-21T13:26:06.630Z,99.90
2018-06-21T13:28:34.696Z,99.90
2018-06-21T13:31:02.758Z,99.90
2018-06-21T13:33:30.767Z,99.90
2018-06-21T13:35:58.810Z,99.90
2018-06-21T13:38:26.871Z,99.90
2018-06-21T13:40:54.909Z,99.90
2018-06-21T13:43:22.938Z,99.90
2018-06-21T13:45:50.959Z,99.90
2018-06-21T13:48:19.003Z,99.90
2018-06-21T13:50:47.238Z,99.90
2018-06-21T13:53:15.317Z,99.90
2018-06-21T13:55:43.443Z,99.90
2018-06-21T13:58:11.957Z,99.90
2018-06-21T14:00:40.039Z,99.90
2018-06-21T14:03:08.091Z,99.90
2018-06-21T14:05:36.177Z,99.90
2018-06-21T14:08:04.865Z,99.90
2018-06-21T14:10:32.689Z,99.90
2018-06-21T14:13:00.771Z,99.90
2018-06-21T14:15:28.773Z,99.90
2018-06-21T14:17:56.851Z,99.90
2018-06-21T14:20:24.862Z,99.90
2018-06-21T14:22:53.207Z,99.90
2018-06-21T14:25:21.226Z,99.90
2018-06-21T14:27:49.282Z,99.90
2018-06-21T14:30:17.300Z,99.90
2018-06-21T14:32:45.445Z,99.90
2018-06-21T14:35:13.464Z,99.90
2018-06-21T14:37:41.554Z,99.90
2018-06-21T14:40:09.577Z,99.90
2018-06-21T14:42:37.613Z,99.90
2018-06-21T14:45:05.665Z,99.90
2018-06-21T14:47:33.749Z,99.90
2018-06-21T14:50:01.828Z,99.90
2018-06-21T14:52:29.969Z,99.90
2018-06-21T14:54:58.067Z,99.90
2018-06-21T14:57:26.174Z,99.90
2018-06-21T14:59:54.239Z,99.10
2018-06-21T15:02:22.380Z,95.50
2018-06-21T15:04:50.475Z,93.30
2018-06-21T15:07:18.531Z,91.20
2018-06-21T15:09:46.641Z,86.40
2018-06-21T15:12:14.724Z,86.60
2018-06-21T15:14:42.829Z,88.30
2018-06-21T15:17:11.013Z,88.30
2018-06-21T15:19:39.131Z,86.00
2018-06-21T15:22:07.223Z,80.20
2018-06-21T15:27:03.030Z,83.00
2018-06-21T15:29:31.126Z,78.10
2018-06-21T15:31:59.182Z,76.30
2018-06-21T15:34:27.318Z,74.00
2018-06-21T15:36:55.382Z,75.90
2018-06-21T15:39:24.334Z,78.90
2018-06-21T15:44:20.884Z,81.90
2018-06-21T15:46:48.962Z,80.40
2018-06-21T15:49:17.079Z,78.70
2018-06-21T15:51:45.160Z,76.50
2018-06-21T15:54:13.321Z,74.80
2018-06-21T15:56:41.432Z,72.50
2018-06-21T15:59:09.953Z,74.20
2018-06-21T16:01:38.028Z,76.00
2018-06-21T16:04:06.280Z,78.60
2018-06-21T16:06:34.429Z,77.50
2018-06-21T16:09:02.606Z,74.50
2018-06-21T16:11:30.687Z,69.70
2018-06-21T16:13:58.790Z,64.80
2018-06-21T16:18:54.720Z,64.00
2018-06-21T16:21:22.785Z,64.70
2018-06-21T16:23:50.893Z,65.20
2018-06-21T16:26:18.961Z,64.90
2018-06-21T16:28:47.414Z,68.20
2018-06-21T16:31:15.518Z,70.20
2018-06-21T16:33:43.770Z,70.60
2018-06-21T16:36:11.819Z,70.90
2018-06-21T16:38:39.991Z,73.40
2018-06-21T16:41:08.194Z,74.60
2018-06-21T16:43:36.407Z,70.90
2018-06-21T16:46:04.581Z,70.50
2018-06-21T16:51:00.639Z,70.40
2018-06-21T16:53:28.681Z,71.30
2018-06-21T16:55:56.852Z,69.30
2018-06-21T16:58:24.984Z,72.00
2018-06-21T17:00:53.873Z,74.50
2018-06-21T17:03:22.002Z,77.80
2018-06-21T17:05:50.124Z,80.90
2018-06-21T17:08:18.230Z,82.60
2018-06-21T17:13:14.128Z,85.60
2018-06-21T17:15:42.405Z,85.60
2018-06-21T17:18:10.711Z,86.30
2018-06-21T17:23:06.565Z,83.00
2018-06-21T17:25:34.668Z,78.50
2018-06-21T17:28:02.767Z,75.70
2018-06-21T17:30:30.858Z,73.90
2018-06-21T17:32:58.953Z,72.40
2018-06-21T17:35:27.026Z,72.70
2018-06-21T17:37:55.161Z,73.70
2018-06-21T17:40:23.244Z,75.40
2018-06-21T17:42:51.313Z,78.30
2018-06-21T17:45:19.449Z,77.30
2018-06-21T17:47:47.491Z,76.20
2018-06-21T17:52:43.363Z,78.00
2018-06-21T17:55:11.469Z,80.50
2018-06-21T17:57:39.556Z,83.00
2018-06-21T18:00:07.765Z,84.00
2018-06-21T18:02:35.834Z,86.30
2018-06-21T18:05:03.909Z,87.30
2018-06-21T18:07:32.055Z,88.60
2018-06-21T18:10:00.145Z,88.40
2018-06-21T18:12:30.584Z,85.70
2018-06-21T18:15:00.020Z,84.30
2018-06-21T18:17:28.406Z,83.10
2018-06-21T18:19:56.838Z,82.20
2018-06-21T18:22:24.888Z,80.80
2018-06-21T18:24:53.149Z,79.70
2018-06-21T18:29:49.271Z,80.80
2018-06-21T18:32:17.541Z,83.00
2018-06-21T18:34:45.651Z,85.90
2018-06-21T18:37:13.948Z,87.10
2018-06-21T18:39:42.383Z,87.70
2018-06-21T18:42:10.676Z,89.00
2018-06-21T18:44:38.755Z,89.80
2018-06-21T18:47:06.876Z,90.10
2018-06-21T18:49:34.947Z,90.50
2018-06-21T18:52:03.035Z,90.50
2018-06-21T18:54:31.121Z,91.20
2018-06-21T18:56:59.238Z,92.00
2018-06-21T18:59:27.338Z,92.50
2018-06-21T19:01:55.693Z,92.60
2018-06-21T19:04:23.914Z,92.60
2018-06-21T19:09:31.275Z,92.90
2018-06-21T19:12:04.890Z,93.30
2018-06-21T19:14:33.058Z,93.90
2018-06-21T19:17:01.258Z,94.80
2018-06-21T19:19:29.303Z,94.80
2018-06-21T19:21:57.620Z,95.20
2018-06-21T19:24:25.985Z,95.90
2018-06-21T19:26:54.201Z,96.10
2018-06-21T19:29:22.315Z,97.20
2018-06-21T19:31:50.455Z,98.10
2018-06-21T19:34:18.673Z,98.40
2018-06-21T19:36:47.917Z,98.80
2018-06-21T19:39:15.926Z,99.40
2018-06-21T19:41:44.101Z,99.70
2018-06-21T19:44:12.297Z,99.90
2018-06-21T19:46:40.475Z,99.90
2018-06-21T19:49:08.869Z,99.90
2018-06-21T19:51:37.150Z,99.90
2018-06-21T19:54:05.429Z,99.90
2018-06-21T19:56:33.810Z,99.90
2018-06-21T19:59:02.195Z,99.90
2018-06-21T20:01:30.500Z,99.90
2018-06-21T20:06:28.583Z,99.90
2018-06-21T20:08:56.761Z,99.90
2018-06-21T20:11:30.423Z,99.90
2018-06-21T20:16:26.516Z,99.90
2018-06-21T20:18:54.733Z,99.90
2018-06-21T20:21:22.765Z,99.90
2018-06-21T20:23:51.874Z,99.90
2018-06-21T20:26:20.807Z,99.90
2018-06-21T20:28:49.033Z,99.90
2018-06-21T20:31:18.060Z,99.90
2018-06-21T20:33:47.049Z,99.90
2018-06-21T20:36:15.650Z,99.90
2018-06-21T20:38:43.830Z,99.90
2018-06-21T20:43:40.239Z,99.90
2018-06-21T20:46:08.605Z,99.90
2018-06-21T20:48:36.757Z,99.90
2018-06-21T20:51:04.980Z,99.90
2018-06-21T20:53:33.212Z,99.90
2018-06-21T20:56:01.454Z,99.90
2018-06-21T21:00:57.492Z,99.90
2018-06-21T21:03:25.819Z,99.90
2018-06-21T21:05:53.892Z,99.90
2018-06-21T21:08:22.114Z,99.90
2018-06-21T21:10:50.140Z,99.90
2018-06-21T21:13:18.677Z,99.90
2018-06-21T21:15:46.887Z,99.90
2018-06-21T21:20:42.867Z,99.90
2018-06-21T21:23:11.293Z,99.90
2018-06-21T21:25:39.518Z,99.90
2018-06-21T21:28:07.983Z,99.90
2018-06-21T21:30:36.001Z,99.90
2018-06-21T21:33:04.216Z,99.90
2018-06-21T21:35:32.481Z,99.90
2018-06-21T21:38:01.131Z,99.90
2018-06-21T21:40:29.329Z,99.90
2018-06-21T21:42:57.558Z,99.90
2018-06-21T21:45:25.934Z,99.90
2018-06-21T21:47:53.946Z,99.90
2018-06-21T21:50:22.180Z,99.90
2018-06-21T21:52:50.400Z,99.90
2018-06-21T21:55:18.836Z,99.90
2018-06-21T21:57:47.069Z,99.90
2018-06-21T22:00:20.967Z,99.90
2018-06-21T22:02:49.089Z,99.90
2018-06-21T22:05:17.262Z,99.90
2018-06-21T22:07:45.539Z,99.90
2018-06-21T22:10:13.535Z,99.90
2018-06-21T22:12:41.836Z,99.90
2018-06-21T22:15:10.138Z,99.90
2018-06-21T22:17:38.369Z,99.90
2018-06-21T22:20:06.730Z,99.90
2018-06-21T22:22:35.010Z,99.90
2018-06-21T22:25:03.330Z,99.90
2018-06-21T22:27:31.658Z,99.90
2018-06-21T22:29:59.867Z,99.90
2018-06-21T22:32:28.256Z,99.90
2018-06-21T22:34:56.448Z,99.90
2018-06-21T22:37:24.832Z,99.90
2018-06-21T22:42:20.595Z,99.90
2018-06-21T22:44:48.649Z,99.90
2018-06-21T22:47:16.745Z,99.90
2018-06-21T22:49:44.800Z,99.90
2018-06-21T22:52:12.845Z,99.90
2018-06-21T22:54:40.890Z,99.90
2018-06-21T22:59:36.713Z,99.90
2018-06-21T23:02:04.777Z,99.90
2018-06-21T23:04:32.815Z,99.90
2018-06-21T23:07:00.863Z,99.90
2018-06-21T23:09:28.885Z,99.90
2018-06-21T23:11:56.928Z,99.90
2018-06-21T23:14:24.939Z,99.90
2018-06-21T23:16:53.941Z,99.90
2018-06-21T23:19:24.769Z,99.90
2018-06-21T23:21:52.908Z,99.90
2018-06-21T23:24:20.924Z,99.90
2018-06-21T23:26:49.009Z,99.90
2018-06-21T23:29:17.038Z,99.90
2018-06-21T23:31:45.114Z,99.90
2018-06-21T23:34:13.156Z,99.90
2018-06-21T23:39:10.386Z,99.90
2018-06-21T23:41:38.646Z,99.90
2018-06-21T23:44:06.674Z,99.90
2018-06-21T23:46:34.718Z,99.90
2018-06-21T23:51:30.814Z,99.90
2018-06-21T23:53:58.866Z,99.90
2018-06-21T23:56:26.886Z,99.90
2018-06-21T23:58:54.959Z,99.90
